createdAt,value
2022-11-21T00:01:27.328Z,-2.80
2022-11-21T00:03:54.529Z,-2.80
2022-11-21T00:06:23.912Z,-2.90
2022-11-21T00:08:51.520Z,-2.90
2022-11-21T00:11:19.129Z,-2.80
2022-11-21T00:13:46.318Z,-2.80
2022-11-21T00:16:15.514Z,-2.80
2022-11-21T00:18:44.374Z,-2.80
2022-11-21T00:21:17.670Z,-2.80
2022-11-21T00:23:46.335Z,-2.80
2022-11-21T00:26:17.527Z,-2.80
2022-11-21T00:28:45.508Z,-2.90
2022-11-21T00:31:23.742Z,-3.00
2022-11-21T00:33:52.023Z,-3.00
2022-11-21T00:36:19.344Z,-3.00
2022-11-21T00:38:46.506Z,-3.00
2022-11-21T00:41:13.708Z,-3.10
2022-11-21T00:43:41.002Z,-3.00
2022-11-21T00:46:08.180Z,-3.00
2022-11-21T00:48:35.302Z,-3.10
2022-11-21T00:51:02.598Z,-3.20
2022-11-21T00:53:30.684Z,-3.20
2022-11-21T00:55:58.236Z,-3.20
2022-11-21T00:58:25.858Z,-3.20
2022-11-21T01:00:53.722Z,-3.20
2022-11-21T01:03:20.904Z,-3.20
2022-11-21T01:05:48.207Z,-3.20
2022-11-21T01:08:16.180Z,-3.10
2022-11-21T01:10:43.447Z,-3.10
2022-11-21T01:13:10.663Z,-3.10
2022-11-21T01:15:38.452Z,-3.10
2022-11-21T01:18:06.050Z,-3.10
2022-11-21T01:20:33.491Z,-3.10
2022-11-21T01:23:01.184Z,-3.20
2022-11-21T01:25:28.382Z,-3.10
2022-11-21T01:27:55.569Z,-3.20
2022-11-21T01:30:22.940Z,-3.20
2022-11-21T01:32:50.450Z,-3.20
2022-11-21T01:35:18.798Z,-3.20
2022-11-21T01:37:49.936Z,-3.30
2022-11-21T01:40:17.588Z,-3.30
2022-11-21T01:42:54.548Z,-3.30
2022-11-21T01:45:55.280Z,-3.20
2022-11-21T01:48:32.833Z,-3.20
2022-11-21T01:51:06.059Z,-3.20
2022-11-21T01:53:34.661Z,-3.30
2022-11-21T01:56:03.052Z,-3.30
2022-11-21T01:58:31.983Z,-3.30
2022-11-21T02:01:00.101Z,-3.30
2022-11-21T02:03:32.988Z,-3.40
2022-11-21T02:06:00.324Z,-3.40
2022-11-21T02:08:29.153Z,-3.40
2022-11-21T02:11:24.569Z,-3.40
2022-11-21T02:13:52.168Z,-3.40
2022-11-21T02:16:19.564Z,-3.40
2022-11-21T02:18:47.051Z,-3.40
2022-11-21T02:21:27.033Z,-3.40
2022-11-21T02:24:04.413Z,-3.40
2022-11-21T02:26:31.892Z,-3.40
2022-11-21T02:28:59.075Z,-3.40
2022-11-21T02:31:26.293Z,-3.40
2022-11-21T02:33:53.793Z,-3.40
2022-11-21T02:36:48.745Z,-3.40
2022-11-21T02:39:39.829Z,-3.40
2022-11-21T02:42:07.160Z,-3.30
2022-11-21T02:44:51.810Z,-3.30
2022-11-21T02:47:20.514Z,-3.20
2022-11-21T02:50:00.395Z,-3.10
2022-11-21T02:52:27.697Z,-3.10
2022-11-21T02:54:54.957Z,-3.00
2022-11-21T02:57:22.143Z,-2.80
2022-11-21T02:59:49.608Z,-2.60
2022-11-21T03:02:17.049Z,-2.60
2022-11-21T03:04:44.315Z,-2.60
2022-11-21T03:07:11.843Z,-2.60
2022-11-21T03:09:39.061Z,-2.60
2022-11-21T03:12:10.178Z,-2.60
2022-11-21T03:14:37.609Z,-2.70
2022-11-21T03:17:05.161Z,-2.70
2022-11-21T03:19:33.169Z,-2.80
2022-11-21T03:22:01.053Z,-2.90
2022-11-21T03:24:28.447Z,-3.00
2022-11-21T03:26:55.913Z,-3.10
2022-11-21T03:29:23.577Z,-3.10
2022-11-21T03:31:50.865Z,-3.20
2022-11-21T03:34:18.064Z,-3.30
2022-11-21T03:36:45.210Z,-3.30
2022-11-21T03:39:12.504Z,-3.30
2022-11-21T03:41:40.271Z,-3.40
2022-11-21T03:44:09.881Z,-3.40
2022-11-21T03:46:40.608Z,-3.40
2022-11-21T03:49:08.906Z,-3.40
2022-11-21T03:51:36.749Z,-3.40
2022-11-21T03:54:04.977Z,-3.40
2022-11-21T03:56:32.892Z,-3.40
2022-11-21T03:59:00.223Z,-3.40
2022-11-21T04:01:30.253Z,-3.50
2022-11-21T04:04:00.155Z,-3.40
2022-11-21T04:06:27.511Z,-3.30
2022-11-21T04:08:54.739Z,-3.30
2022-11-21T04:11:24.159Z,-3.20
2022-11-21T04:13:54.505Z,-3.10
2022-11-21T04:16:21.831Z,-2.90
2022-11-21T04:18:48.995Z,-2.70
2022-11-21T04:21:16.316Z,-2.60
2022-11-21T04:23:43.585Z,-2.60
2022-11-21T04:26:13.408Z,-2.60
2022-11-21T04:28:41.021Z,-2.60
2022-11-21T04:31:11.024Z,-2.60
2022-11-21T04:33:41.827Z,-2.70
2022-11-21T04:36:09.627Z,-2.60
2022-11-21T04:38:37.439Z,-2.70
2022-11-21T04:41:05.340Z,-2.60
2022-11-21T04:43:32.685Z,-2.60
2022-11-21T04:45:59.849Z,-2.60
2022-11-21T04:48:27.104Z,-2.50
2022-11-21T04:50:54.506Z,-2.50
2022-11-21T04:53:21.781Z,-2.40
2022-11-21T04:55:49.078Z,-2.50
2022-11-21T04:58:16.215Z,-2.40
2022-11-21T05:00:43.441Z,-2.30
2022-11-21T05:03:11.196Z,-2.30
2022-11-21T05:05:38.693Z,-2.30
2022-11-21T05:08:05.974Z,-2.20
2022-11-21T05:10:53.242Z,-2.20
2022-11-21T05:13:23.221Z,-2.20
2022-11-21T05:15:56.713Z,-2.10
2022-11-21T05:18:24.516Z,-2.10
2022-11-21T05:20:51.696Z,-1.90
2022-11-21T05:23:18.932Z,-1.90
2022-11-21T05:25:46.162Z,-1.90
2022-11-21T05:28:13.433Z,-1.90
2022-11-21T05:30:40.699Z,-1.90
2022-11-21T05:33:07.850Z,-1.90
2022-11-21T05:35:40.175Z,-1.80
2022-11-21T05:38:10.334Z,-1.80
2022-11-21T05:40:38.679Z,-1.80
2022-11-21T05:43:24.444Z,-1.80
2022-11-21T05:45:51.966Z,-1.70
2022-11-21T05:48:19.280Z,-1.70
2022-11-21T05:50:50.301Z,-1.60
2022-11-21T05:53:18.258Z,-1.50
2022-11-21T05:55:45.508Z,-1.40
2022-11-21T05:58:13.398Z,-1.30
2022-11-21T06:00:40.655Z,-1.30
2022-11-21T06:03:28.716Z,-1.20
2022-11-21T06:06:07.419Z,-1.30
2022-11-21T06:08:37.635Z,-1.20
2022-11-21T06:11:07.059Z,-1.10
2022-11-21T06:13:34.664Z,-1.10
2022-11-21T06:16:03.095Z,-1.10
2022-11-21T06:18:34.030Z,-1.10
2022-11-21T06:21:08.322Z,-1.00
2022-11-21T06:23:36.441Z,-0.90
2022-11-21T06:26:06.697Z,-0.80
2022-11-21T06:28:35.969Z,-0.80
2022-11-21T06:31:12.567Z,-0.70
2022-11-21T06:33:41.256Z,-0.70
2022-11-21T06:36:16.619Z,-0.60
2022-11-21T06:38:44.987Z,-0.50
2022-11-21T06:41:20.323Z,-0.40
2022-11-21T06:43:47.785Z,-0.40
2022-11-21T06:46:15.991Z,-0.40
2022-11-21T06:48:44.559Z,-0.40
2022-11-21T06:51:13.845Z,-0.40
2022-11-21T06:53:40.984Z,-0.40
2022-11-21T06:56:08.274Z,-0.30
2022-11-21T06:58:35.433Z,-0.20
2022-11-21T07:01:06.976Z,-0.10
2022-11-21T07:03:34.927Z,-0.10
2022-11-21T07:06:03.182Z,0.10
2022-11-21T07:08:31.866Z,0.20
2022-11-21T07:11:24.150Z,0.30
2022-11-21T07:13:51.112Z,0.40
2022-11-21T07:16:18.354Z,0.60
2022-11-21T07:18:45.790Z,0.70
2022-11-21T07:21:13.528Z,0.80
2022-11-21T07:23:40.914Z,0.90
2022-11-21T07:26:08.857Z,1.00
2022-11-21T07:28:36.322Z,1.10
2022-11-21T07:31:10.064Z,1.10
2022-11-21T07:33:40.471Z,1.20
2022-11-21T07:36:07.769Z,1.30
2022-11-21T07:38:35.025Z,1.30
2022-11-21T07:41:02.452Z,1.30
2022-11-21T07:43:29.834Z,1.40
2022-11-21T07:45:57.106Z,1.50
2022-11-21T07:48:24.393Z,1.50
2022-11-21T07:50:52.294Z,1.60
2022-11-21T07:53:19.776Z,1.60
2022-11-21T07:55:47.006Z,1.70
2022-11-21T07:58:17.313Z,1.70
2022-11-21T08:00:44.728Z,1.80
2022-11-21T08:03:13.692Z,1.90
2022-11-21T08:05:43.695Z,1.90
2022-11-21T08:08:12.552Z,1.90
2022-11-21T08:10:41.810Z,1.90
2022-11-21T08:13:09.710Z,2.00
2022-11-21T08:15:37.830Z,2.00
2022-11-21T08:18:15.795Z,2.00
2022-11-21T08:20:43.231Z,2.00
2022-11-21T08:23:11.112Z,2.10
2022-11-21T08:25:40.234Z,2.10
2022-11-21T08:28:08.964Z,2.20
2022-11-21T08:30:37.484Z,2.20
2022-11-21T08:33:05.222Z,2.20
2022-11-21T08:35:32.451Z,2.30
2022-11-21T08:38:01.189Z,2.40
2022-11-21T08:40:32.392Z,2.40
2022-11-21T08:43:08.515Z,2.40
2022-11-21T08:45:37.514Z,2.40
2022-11-21T08:48:09.651Z,2.50
2022-11-21T08:50:36.999Z,2.50
2022-11-21T08:53:05.604Z,2.50
2022-11-21T08:55:33.041Z,2.50
2022-11-21T08:58:00.491Z,2.60
2022-11-21T09:00:27.728Z,2.60
2022-11-21T09:02:58.285Z,2.60
2022-11-21T09:05:27.937Z,2.60
2022-11-21T09:07:59.062Z,2.60
2022-11-21T09:10:27.357Z,2.60
2022-11-21T09:12:54.663Z,2.60
2022-11-21T09:15:40.584Z,2.70
2022-11-21T09:18:08.429Z,2.70
2022-11-21T09:20:45.216Z,2.80
2022-11-21T09:23:14.893Z,2.90
2022-11-21T09:25:42.637Z,3.00
2022-11-21T09:28:12.165Z,3.10
2022-11-21T09:30:41.399Z,3.10
2022-11-21T09:33:11.905Z,3.20
2022-11-21T09:35:39.772Z,3.30
2022-11-21T09:38:08.170Z,3.30
2022-11-21T09:40:36.249Z,3.40
2022-11-21T09:43:31.097Z,3.50
2022-11-21T09:46:20.500Z,3.60
2022-11-21T09:48:50.779Z,3.70
2022-11-21T09:51:20.984Z,3.80
2022-11-21T09:54:12.495Z,3.80
2022-11-21T09:56:43.105Z,3.90
2022-11-21T09:59:21.025Z,4.10
2022-11-21T10:01:48.493Z,4.20
2022-11-21T10:04:27.804Z,4.40
2022-11-21T10:06:55.165Z,4.50
2022-11-21T10:09:25.542Z,4.60
2022-11-21T10:12:30.348Z,4.80
2022-11-21T10:15:29.319Z,5.00
2022-11-21T10:18:24.739Z,5.20
2022-11-21T10:21:22.883Z,5.40
2022-11-21T10:24:11.274Z,5.50
2022-11-21T10:27:11.697Z,5.60
2022-11-21T10:29:48.014Z,5.70
2022-11-21T10:32:25.165Z,5.70
2022-11-21T10:34:56.188Z,5.90
2022-11-21T10:37:38.170Z,6.20
2022-11-21T10:40:38.361Z,6.30
2022-11-21T10:43:42.131Z,6.40
2022-11-21T10:46:10.283Z,6.60
2022-11-21T10:48:37.588Z,6.80
2022-11-21T10:51:13.846Z,6.90
2022-11-21T10:54:06.157Z,7.10
2022-11-21T10:56:36.987Z,7.30
2022-11-21T10:59:19.412Z,7.30
2022-11-21T11:01:57.429Z,7.30
2022-11-21T11:04:28.125Z,7.30
2022-11-21T11:06:56.792Z,7.30
2022-11-21T11:09:37.810Z,7.30
2022-11-21T11:12:49.839Z,7.10
2022-11-21T11:15:25.613Z,7.10
2022-11-21T11:18:05.560Z,6.90
2022-11-21T11:20:45.379Z,6.90
2022-11-21T11:23:21.351Z,6.80
2022-11-21T11:25:57.142Z,6.70
2022-11-21T11:28:26.396Z,6.60
2022-11-21T11:30:57.230Z,6.60
2022-11-21T11:33:41.022Z,6.60
2022-11-21T11:36:14.811Z,6.50
2022-11-21T11:39:22.119Z,6.50
2022-11-21T11:42:31.265Z,6.50
2022-11-21T11:45:33.130Z,6.40
2022-11-21T11:48:10.925Z,6.40
2022-11-21T11:50:53.005Z,6.40
2022-11-21T11:53:50.276Z,6.40
2022-11-21T11:56:25.325Z,6.50
2022-11-21T11:59:06.461Z,6.60
2022-11-21T12:01:45.649Z,6.60
2022-11-21T12:04:21.392Z,6.70
2022-11-21T12:09:57.925Z,6.60
2022-11-21T12:12:39.652Z,6.60
2022-11-21T12:15:31.259Z,6.70
2022-11-21T12:18:16.862Z,6.80
2022-11-21T12:21:04.329Z,6.70
2022-11-21T12:23:47.266Z,6.70
2022-11-21T12:26:20.535Z,6.60
2022-11-21T12:28:59.708Z,6.60
2022-11-21T12:31:59.598Z,6.50
2022-11-21T12:34:39.620Z,6.50
2022-11-21T12:37:31.618Z,6.40
2022-11-21T12:40:31.654Z,6.40
2022-11-21T12:43:26.954Z,6.40
2022-11-21T12:46:10.817Z,6.30
2022-11-21T12:49:14.351Z,6.30
2022-11-21T12:52:26.350Z,6.30
2022-11-21T12:55:06.094Z,6.40
2022-11-21T12:58:02.028Z,6.40
2022-11-21T13:00:46.385Z,6.40
2022-11-21T13:03:33.666Z,6.40
2022-11-21T13:06:02.593Z,6.40
2022-11-21T13:08:35.458Z,6.40
2022-11-21T13:11:31.814Z,6.40
2022-11-21T13:14:26.501Z,6.40
2022-11-21T13:17:09.690Z,6.30
2022-11-21T13:20:10.520Z,6.30
2022-11-21T13:22:37.745Z,6.20
2022-11-21T13:25:10.526Z,6.20
2022-11-21T13:27:39.660Z,6.10
2022-11-21T13:30:12.284Z,6.10
2022-11-21T13:32:52.428Z,6.00
2022-11-21T13:35:19.803Z,6.00
2022-11-21T13:37:54.614Z,5.90
2022-11-21T13:40:31.003Z,5.80
2022-11-21T13:43:33.223Z,5.80
2022-11-21T13:45:59.625Z,5.70
2022-11-21T13:48:34.918Z,5.70
2022-11-21T13:51:23.538Z,5.60
2022-11-21T13:54:02.912Z,5.60
2022-11-21T13:56:47.015Z,5.50
2022-11-21T13:59:17.207Z,5.60
2022-11-21T14:02:04.842Z,5.70
2022-11-21T14:05:17.682Z,5.60
2022-11-21T14:07:45.966Z,5.60
2022-11-21T14:10:28.753Z,5.60
2022-11-21T14:12:56.561Z,5.60
2022-11-21T14:15:44.518Z,5.60
2022-11-21T14:18:25.533Z,5.60
2022-11-21T14:20:54.859Z,5.50
2022-11-21T14:23:24.394Z,5.40
2022-11-21T14:26:02.235Z,5.40
2022-11-21T14:28:35.641Z,5.40
2022-11-21T14:31:06.853Z,5.50
2022-11-21T14:33:36.447Z,5.50
2022-11-21T14:36:22.726Z,5.40
2022-11-21T14:39:28.936Z,5.40
2022-11-21T14:41:45.309Z,5.30
2022-11-21T14:44:12.410Z,5.20
2022-11-21T14:46:42.284Z,5.20
2022-11-21T14:49:18.067Z,5.10
2022-11-21T14:51:48.721Z,5.20
2022-11-21T14:54:24.998Z,5.10
2022-11-21T14:57:09.156Z,5.10
2022-11-21T14:59:42.971Z,5.10
2022-11-21T15:02:17.414Z,4.90
2022-11-21T15:04:48.026Z,4.80
2022-11-21T15:07:32.127Z,4.70
2022-11-21T15:13:12.368Z,4.50
2022-11-21T15:15:44.844Z,4.40
2022-11-21T15:18:28.530Z,4.20
2022-11-21T15:21:00.352Z,4.20
2022-11-21T15:23:29.624Z,4.10
2022-11-21T15:28:56.225Z,4.00
2022-11-21T15:31:24.769Z,3.90
2022-11-21T15:37:28.494Z,3.80
2022-11-21T15:39:55.744Z,3.70
2022-11-21T15:42:38.554Z,3.70
2022-11-21T15:45:20.248Z,3.70
2022-11-21T15:48:07.362Z,3.60
2022-11-21T15:50:35.456Z,3.50
2022-11-21T15:53:02.682Z,3.50
2022-11-21T15:55:31.744Z,3.40
2022-11-21T15:57:14.939Z,4.10
2022-11-21T15:57:59.049Z,3.30
2022-11-21T16:00:26.536Z,3.30
2022-11-21T16:02:53.724Z,3.30
2022-11-21T16:05:20.970Z,3.20
2022-11-21T16:07:48.501Z,3.20
2022-11-21T16:10:22.654Z,3.10
2022-11-21T16:12:53.961Z,3.00
2022-11-21T16:15:21.477Z,3.00
2022-11-21T16:17:49.395Z,3.00
2022-11-21T16:20:18.116Z,2.90
2022-11-21T16:22:47.677Z,2.90
2022-11-21T16:25:16.275Z,2.90
2022-11-21T16:27:43.632Z,2.90
2022-11-21T16:30:11.378Z,2.90
2022-11-21T16:32:39.065Z,2.90
2022-11-21T16:35:07.388Z,2.80
2022-11-21T16:37:34.679Z,2.80
2022-11-21T16:40:02.070Z,2.80
2022-11-21T16:42:29.400Z,2.80
2022-11-21T16:44:56.576Z,2.80
2022-11-21T16:47:23.834Z,2.70
2022-11-21T16:49:51.138Z,2.70
2022-11-21T16:52:18.708Z,2.60
2022-11-21T16:54:47.222Z,2.60
2022-11-21T16:57:15.406Z,2.60
2022-11-21T16:59:42.777Z,2.60
2022-11-21T17:02:12.777Z,2.50
2022-11-21T17:04:40.026Z,2.50
2022-11-21T17:07:07.977Z,2.50
2022-11-21T17:09:35.438Z,2.40
2022-11-21T17:12:02.796Z,2.40
2022-11-21T17:14:31.635Z,2.30
2022-11-21T17:17:02.121Z,2.40
2022-11-21T17:19:29.476Z,2.30
2022-11-21T17:21:57.648Z,2.30
2022-11-21T17:24:27.506Z,2.30
2022-11-21T17:26:57.145Z,2.20
2022-11-21T17:29:24.526Z,2.20
2022-11-21T17:31:52.993Z,2.20
2022-11-21T17:34:20.279Z,2.20
2022-11-21T17:36:48.641Z,2.10
2022-11-21T17:39:18.222Z,2.10
2022-11-21T17:41:45.510Z,2.00
2022-11-21T17:44:16.531Z,1.90
2022-11-21T17:46:44.046Z,1.80
2022-11-21T17:49:22.467Z,1.70
2022-11-21T17:51:55.202Z,1.60
2022-11-21T17:54:25.297Z,1.50
2022-11-21T17:56:57.107Z,1.50
2022-11-21T17:59:24.608Z,1.40
2022-11-21T18:01:51.932Z,1.40
2022-11-21T18:04:22.439Z,1.30
2022-11-21T18:06:50.896Z,1.20
2022-11-21T18:09:18.263Z,1.20
2022-11-21T18:11:47.314Z,1.20
2022-11-21T18:14:14.901Z,1.10
2022-11-21T18:16:47.642Z,1.00
2022-11-21T18:19:18.730Z,1.10
2022-11-21T18:21:47.248Z,1.00
2022-11-21T18:24:14.406Z,0.90
2022-11-21T18:26:41.977Z,0.80
2022-11-21T18:29:35.113Z,0.70
2022-11-21T18:31:57.917Z,0.70
2022-11-21T18:34:25.073Z,0.60
2022-11-21T18:36:52.257Z,0.60
2022-11-21T18:39:19.640Z,0.60
2022-11-21T18:41:47.423Z,0.60
2022-11-21T18:44:21.488Z,0.60
2022-11-21T18:46:49.952Z,0.60
2022-11-21T18:49:18.006Z,0.60
2022-11-21T18:51:51.316Z,0.60
2022-11-21T18:54:18.794Z,0.70
2022-11-21T18:56:47.352Z,0.60
2022-11-21T18:59:14.928Z,0.60
2022-11-21T19:01:42.539Z,0.70
2022-11-21T19:04:10.097Z,0.70
2022-11-21T19:06:40.439Z,0.70
2022-11-21T19:09:08.602Z,0.70
2022-11-21T19:11:35.954Z,0.60
2022-11-21T19:14:03.212Z,0.60
2022-11-21T19:16:31.705Z,0.60
2022-11-21T19:19:33.052Z,0.60
2022-11-21T19:21:47.399Z,0.50
2022-11-21T19:24:16.262Z,0.40
2022-11-21T19:26:43.779Z,0.50
2022-11-21T19:29:11.621Z,0.50
2022-11-21T19:31:44.842Z,0.50
2022-11-21T19:34:14.232Z,0.40
2022-11-21T19:36:41.674Z,0.40
2022-11-21T19:39:09.352Z,0.40
2022-11-21T19:41:38.409Z,0.50
2022-11-21T19:44:06.096Z,0.40
2022-11-21T19:46:35.729Z,0.40
2022-11-21T19:49:04.524Z,0.30
2022-11-21T19:51:34.606Z,0.30
2022-11-21T19:54:06.648Z,0.20
2022-11-21T19:56:34.411Z,0.30
2022-11-21T19:59:02.253Z,0.20
2022-11-21T20:01:31.686Z,0.10
2022-11-21T20:04:01.616Z,0.10
2022-11-21T20:06:31.438Z,0.00
2022-11-21T20:09:01.053Z,0.10
2022-11-21T20:11:30.442Z,0.10
2022-11-21T20:13:58.082Z,0.10
2022-11-21T20:16:29.054Z,0.10
2022-11-21T20:18:59.169Z,0.00
2022-11-21T20:21:26.796Z,0.00
2022-11-21T20:23:54.648Z,0.10
2022-11-21T20:26:22.775Z,0.00
2022-11-21T20:28:50.640Z,0.00
2022-11-21T20:31:23.893Z,0.00
2022-11-21T20:33:53.398Z,0.00
2022-11-21T20:36:23.037Z,0.00
2022-11-21T20:39:01.653Z,0.10
2022-11-21T20:41:31.712Z,0.00
2022-11-21T20:46:49.299Z,0.00
2022-11-21T20:49:16.464Z,0.00
2022-11-21T20:54:31.351Z,-0.10
2022-11-21T20:56:58.778Z,-0.10
2022-11-21T20:59:27.151Z,-0.10
2022-11-21T21:01:54.875Z,-0.10
2022-11-21T21:04:22.157Z,-0.10
2022-11-21T21:06:49.629Z,0.00
2022-11-21T21:09:16.816Z,0.00
2022-11-21T21:11:52.956Z,0.10
2022-11-21T21:14:22.133Z,0.10
2022-11-21T21:16:50.153Z,0.10
2022-11-21T21:19:17.971Z,0.10
2022-11-21T21:21:45.579Z,0.10
2022-11-21T21:24:13.450Z,0.10
2022-11-21T21:26:44.017Z,0.20
2022-11-21T21:29:13.714Z,0.20
2022-11-21T21:31:45.503Z,0.20
2022-11-21T21:34:17.694Z,0.20
2022-11-21T21:36:45.452Z,0.20
2022-11-21T21:39:12.781Z,0.20
2022-11-21T21:41:41.653Z,0.20
2022-11-21T21:44:08.837Z,0.30
2022-11-21T21:46:36.168Z,0.30
2022-11-21T21:49:03.573Z,0.30
2022-11-21T21:51:32.542Z,0.30
2022-11-21T21:54:00.524Z,0.30
2022-11-21T21:56:29.413Z,0.30
2022-11-21T21:58:58.163Z,0.30
2022-11-21T22:01:30.496Z,0.30
2022-11-21T22:04:04.156Z,0.30
2022-11-21T22:06:33.776Z,0.30
2022-11-21T22:09:00.934Z,0.30
2022-11-21T22:11:30.791Z,0.20
2022-11-21T22:14:03.873Z,0.20
2022-11-21T22:16:31.630Z,0.20
2022-11-21T22:18:59.313Z,0.20
2022-11-21T22:21:34.675Z,0.20
2022-11-21T22:24:24.956Z,0.20
2022-11-21T22:26:54.340Z,0.10
2022-11-21T22:29:21.574Z,0.10
2022-11-21T22:31:48.774Z,0.10
2022-11-21T22:34:15.979Z,0.10
2022-11-21T22:36:44.213Z,0.10
2022-11-21T22:39:11.508Z,0.10
2022-11-21T22:41:38.817Z,0.10
2022-11-21T22:44:06.851Z,0.20
2022-11-21T22:46:40.138Z,0.10
2022-11-21T22:49:07.589Z,0.10
2022-11-21T22:51:34.932Z,0.10
2022-11-21T22:54:02.193Z,0.10
2022-11-21T22:56:29.644Z,0.10
2022-11-21T22:58:57.547Z,0.10
2022-11-21T23:01:26.257Z,0.10
2022-11-21T23:03:55.786Z,0.20
2022-11-21T23:06:25.130Z,0.20
2022-11-21T23:08:53.396Z,0.20
2022-11-21T23:11:23.286Z,0.10
2022-11-21T23:13:51.614Z,0.20
2022-11-21T23:16:19.658Z,0.20
2022-11-21T23:18:47.196Z,0.20
2022-11-21T23:21:15.397Z,0.20
2022-11-21T23:23:44.145Z,0.10
2022-11-21T23:26:11.993Z,0.10
2022-11-21T23:28:39.410Z,0.10
2022-11-21T23:31:06.697Z,0.10
2022-11-21T23:33:33.961Z,0.10
2022-11-21T23:36:01.135Z,0.10
2022-11-21T23:38:28.962Z,0.10
2022-11-21T23:40:56.376Z,0.20
2022-11-21T23:43:23.549Z,0.20
2022-11-21T23:45:52.370Z,0.20
2022-11-21T23:48:20.345Z,0.20
2022-11-21T23:50:48.552Z,0.20
2022-11-21T23:53:15.873Z,0.30
2022-11-21T23:55:45.965Z,0.20
2022-11-21T23:58:13.925Z,0.20
